createdAt,value
2022-08-21T00:03:20.562Z,78.61
2022-08-21T00:08:42.832Z,79.16
2022-08-21T00:14:06.271Z,79.38
2022-08-21T00:19:28.687Z,80.59
2022-08-21T00:24:50.507Z,80.55
2022-08-21T00:30:17.713Z,81.92
2022-08-21T00:35:45.097Z,82.10
2022-08-21T00:41:36.470Z,82.33
2022-08-21T00:46:50.690Z,84.01
2022-08-21T00:52:20.259Z,84.01
2022-08-21T00:57:48.295Z,83.31
2022-08-21T01:03:15.293Z,84.07
2022-08-21T01:08:37.209Z,84.52
2022-08-21T01:14:05.747Z,84.92
2022-08-21T01:19:27.939Z,86.28
2022-08-21T01:24:49.864Z,86.69
2022-08-21T01:30:21.768Z,86.95
2022-08-21T01:35:43.625Z,87.43
2022-08-21T01:41:05.446Z,88.01
2022-08-21T01:46:27.562Z,87.77
2022-08-21T01:51:49.451Z,88.65
2022-08-21T01:57:12.574Z,88.40
2022-08-21T02:02:34.394Z,90.26
2022-08-21T02:07:56.315Z,89.57
2022-08-21T02:13:18.925Z,89.55
2022-08-21T02:18:40.780Z,90.96
2022-08-21T02:24:02.989Z,91.56
2022-08-21T02:29:24.834Z,91.16
2022-08-21T02:34:46.795Z,91.41
2022-08-21T02:40:09.137Z,91.59
2022-08-21T02:45:31.806Z,91.33
2022-08-21T02:51:00.180Z,91.51
2022-08-21T02:56:22.419Z,93.18
2022-08-21T03:01:44.431Z,93.71
2022-08-21T03:07:06.607Z,94.91
2022-08-21T03:12:33.096Z,94.85
2022-08-21T03:17:54.999Z,95.41
2022-08-21T03:23:19.104Z,95.83
2022-08-21T03:28:41.512Z,98.05
2022-08-21T03:34:03.384Z,97.26
2022-08-21T03:39:25.276Z,98.91
2022-08-21T03:44:47.143Z,99.55
2022-08-21T03:50:09.375Z,97.47
2022-08-21T03:55:31.460Z,96.63
2022-08-21T04:00:55.937Z,96.85
2022-08-21T04:06:17.757Z,94.95
2022-08-21T04:11:39.631Z,94.69
2022-08-21T04:17:01.565Z,90.78
2022-08-21T04:22:23.393Z,89.20
2022-08-21T04:27:45.511Z,84.12
2022-08-21T04:33:07.367Z,76.15
2022-08-21T04:38:36.487Z,69.19
2022-08-21T04:43:59.669Z,66.58
2022-08-21T04:49:21.481Z,61.96
2022-08-21T04:54:45.743Z,60.74
2022-08-21T05:00:12.346Z,65.02
2022-08-21T05:05:36.221Z,63.49
2022-08-21T05:11:00.539Z,61.21
2022-08-21T05:16:36.991Z,58.90
2022-08-21T05:21:59.676Z,54.15
2022-08-21T05:27:21.528Z,45.24
2022-08-21T05:32:45.601Z,40.15
2022-08-21T05:38:07.812Z,39.89
2022-08-21T05:43:40.088Z,42.59
2022-08-21T05:49:01.919Z,41.06
2022-08-21T05:54:23.759Z,40.11
2022-08-21T05:59:45.581Z,41.28
2022-08-21T06:05:07.921Z,40.98
2022-08-21T06:10:31.168Z,39.03
2022-08-21T06:16:22.363Z,36.88
2022-08-21T06:21:44.203Z,36.76
2022-08-21T06:27:07.643Z,36.76
2022-08-21T06:32:31.313Z,36.20
2022-08-21T06:37:53.143Z,35.14
2022-08-21T06:43:17.202Z,33.56
2022-08-21T06:48:39.225Z,30.20
2022-08-21T06:54:01.071Z,31.19
2022-08-21T06:59:22.962Z,31.88
2022-08-21T07:04:44.917Z,32.32
2022-08-21T07:10:07.065Z,32.25
2022-08-21T07:15:30.849Z,31.42
2022-08-21T07:20:52.934Z,35.21
2022-08-21T07:26:16.943Z,31.88
2022-08-21T07:31:38.785Z,31.98
2022-08-21T07:37:00.593Z,31.55
2022-08-21T07:42:28.260Z,30.92
2022-08-21T07:47:53.032Z,31.35
2022-08-21T07:53:18.690Z,31.10
2022-08-21T07:58:40.494Z,30.66
2022-08-21T08:04:02.476Z,29.80
2022-08-21T08:09:24.332Z,30.31
2022-08-21T08:14:46.140Z,31.20
2022-08-21T08:20:09.986Z,30.94
2022-08-21T08:25:36.667Z,35.27
2022-08-21T08:31:00.236Z,32.07
2022-08-21T08:36:33.640Z,32.62
2022-08-21T08:42:32.850Z,33.52
2022-08-21T08:48:03.558Z,33.49
2022-08-21T08:53:34.064Z,34.45
2022-08-21T08:59:02.766Z,37.59
2022-08-21T09:04:28.044Z,38.30
2022-08-21T09:10:12.552Z,42.73
2022-08-21T09:15:47.756Z,45.23
2022-08-21T09:21:27.572Z,42.07
2022-08-21T09:26:58.330Z,40.09
2022-08-21T09:32:39.938Z,41.96
2022-08-21T09:38:05.767Z,41.96
2022-08-21T09:43:27.957Z,45.19
2022-08-21T09:48:52.608Z,45.32
2022-08-21T09:54:19.062Z,48.34
2022-08-21T09:59:41.683Z,44.78
2022-08-21T10:05:16.638Z,46.83
2022-08-21T10:10:38.564Z,43.33
2022-08-21T10:16:27.707Z,45.10
2022-08-21T10:22:03.315Z,42.43
2022-08-21T10:27:46.781Z,43.25
2022-08-21T10:33:11.563Z,43.64
2022-08-21T10:38:52.700Z,43.85
2022-08-21T10:44:41.520Z,47.01
2022-08-21T10:50:21.672Z,45.92
2022-08-21T10:56:05.938Z,46.80
2022-08-21T11:01:45.875Z,46.42
2022-08-21T11:07:23.312Z,47.14
2022-08-21T11:12:56.047Z,46.77
2022-08-21T11:18:33.277Z,46.60
2022-08-21T11:24:10.173Z,46.66
2022-08-21T11:29:41.597Z,46.93
2022-08-21T11:35:21.445Z,47.63
2022-08-21T11:41:06.373Z,47.15
2022-08-21T11:47:06.128Z,47.95
2022-08-21T11:53:10.129Z,48.59
2022-08-21T11:58:43.942Z,49.22
2022-08-21T12:04:23.255Z,48.32
2022-08-21T12:09:56.132Z,44.35
2022-08-21T12:15:21.009Z,46.31
2022-08-21T12:21:01.539Z,49.28
2022-08-21T12:26:36.969Z,49.90
2022-08-21T12:32:02.235Z,49.54
2022-08-21T12:37:43.742Z,50.04
2022-08-21T12:43:12.708Z,48.80
2022-08-21T12:48:43.732Z,48.25
2022-08-21T12:54:05.556Z,48.70
2022-08-21T12:59:27.938Z,51.71
2022-08-21T13:04:51.122Z,50.87
2022-08-21T13:10:33.744Z,50.88
2022-08-21T13:16:01.380Z,52.72
2022-08-21T13:21:30.240Z,51.82
2022-08-21T13:26:53.113Z,53.49
2022-08-21T13:32:26.563Z,52.98
2022-08-21T13:37:50.575Z,51.25
2022-08-21T13:43:19.949Z,51.07
2022-08-21T13:48:43.767Z,49.94
2022-08-21T13:54:29.882Z,50.40
2022-08-21T13:59:51.930Z,51.21
2022-08-21T14:05:23.552Z,51.51
2022-08-21T14:10:56.060Z,51.95
2022-08-21T14:16:27.299Z,52.46
2022-08-21T14:21:49.368Z,53.08
2022-08-21T14:27:11.339Z,52.45
2022-08-21T14:32:44.922Z,52.14
2022-08-21T14:38:19.480Z,52.31
2022-08-21T14:43:41.307Z,51.50
2022-08-21T14:49:04.798Z,48.71
2022-08-21T14:54:31.220Z,48.59
2022-08-21T14:59:53.988Z,50.33
2022-08-21T15:05:16.522Z,49.52
2022-08-21T15:11:10.659Z,48.84
2022-08-21T15:16:31.467Z,49.22
2022-08-21T15:21:53.412Z,49.72
2022-08-21T15:27:17.593Z,49.51
2022-08-21T15:32:39.524Z,49.97
2022-08-21T15:38:01.504Z,51.88
2022-08-21T15:43:30.170Z,54.29
2022-08-21T15:48:54.431Z,57.42
2022-08-21T15:54:19.707Z,57.38
2022-08-21T15:59:46.114Z,58.20
2022-08-21T16:05:08.533Z,59.16
2022-08-21T16:10:30.426Z,59.11
2022-08-21T16:15:53.223Z,59.18
2022-08-21T16:21:15.327Z,60.45
2022-08-21T16:26:37.480Z,61.34
2022-08-21T16:31:59.401Z,61.03
2022-08-21T16:37:24.022Z,63.44
2022-08-21T16:42:46.416Z,64.15
2022-08-21T16:48:08.253Z,64.32
2022-08-21T16:53:30.128Z,64.36
2022-08-21T16:58:55.321Z,65.13
2022-08-21T17:04:17.130Z,65.48
2022-08-21T17:09:39.028Z,65.80
2022-08-21T17:15:21.590Z,65.12
2022-08-21T17:20:43.774Z,65.96
2022-08-21T17:26:05.685Z,66.33
2022-08-21T17:31:33.426Z,66.79
2022-08-21T17:36:55.586Z,66.75
2022-08-21T17:42:17.587Z,67.02
2022-08-21T17:47:39.598Z,68.27
2022-08-21T17:53:01.897Z,68.46
2022-08-21T17:58:23.800Z,69.50
2022-08-21T18:03:45.683Z,69.73
2022-08-21T18:09:08.211Z,69.76
2022-08-21T18:14:34.290Z,69.85
2022-08-21T18:19:56.436Z,70.88
2022-08-21T18:25:18.592Z,70.73
2022-08-21T18:30:42.452Z,70.99
2022-08-21T18:36:05.030Z,71.76
2022-08-21T18:41:26.873Z,71.48
2022-08-21T18:46:54.271Z,71.97
2022-08-21T18:52:17.718Z,71.63
2022-08-21T18:57:45.860Z,73.06
2022-08-21T19:03:08.523Z,72.73
2022-08-21T19:08:31.536Z,73.07
2022-08-21T19:13:53.773Z,73.19
2022-08-21T19:19:16.428Z,73.09
2022-08-21T19:24:39.643Z,73.52
2022-08-21T19:30:13.468Z,74.28
2022-08-21T19:35:53.698Z,74.53
2022-08-21T19:41:17.281Z,73.79
2022-08-21T19:46:41.907Z,73.60
2022-08-21T19:52:12.908Z,74.06
2022-08-21T19:57:37.885Z,73.58
2022-08-21T20:02:59.959Z,74.70
2022-08-21T20:08:22.503Z,74.65
2022-08-21T20:13:50.023Z,75.49
2022-08-21T20:19:12.045Z,76.44
2022-08-21T20:24:34.135Z,77.24
2022-08-21T20:29:56.046Z,76.64
2022-08-21T20:35:18.041Z,77.13
2022-08-21T20:40:40.540Z,79.86
2022-08-21T20:46:03.378Z,80.60
2022-08-21T20:51:31.470Z,81.11
2022-08-21T20:57:03.788Z,81.39
2022-08-21T21:02:38.588Z,82.03
2022-08-21T21:08:02.704Z,82.34
2022-08-21T21:13:32.736Z,85.89
2022-08-21T21:19:06.572Z,86.95
2022-08-21T21:24:41.612Z,85.75
2022-08-21T21:30:14.455Z,86.80
2022-08-21T21:35:49.171Z,89.26
2022-08-21T21:41:14.083Z,88.85
2022-08-21T21:46:54.730Z,88.37
2022-08-21T21:52:35.038Z,90.62
2022-08-21T22:04:08.046Z,91.31
2022-08-21T22:15:50.210Z,91.98
2022-08-21T22:21:22.445Z,89.74
2022-08-21T22:26:52.007Z,90.46
2022-08-21T22:32:22.950Z,89.96
2022-08-21T22:37:46.644Z,92.92
2022-08-21T22:43:15.117Z,94.00
2022-08-21T22:48:50.612Z,94.66
2022-08-21T22:54:22.155Z,93.26
2022-08-21T22:59:58.416Z,93.79
2022-08-21T23:05:30.709Z,95.79
2022-08-21T23:11:06.025Z,97.08
2022-08-21T23:17:00.913Z,100.00
2022-08-21T23:22:49.056Z,100.00
2022-08-21T23:28:25.993Z,100.00
2022-08-21T23:34:00.644Z,100.00
2022-08-21T23:39:53.193Z,100.00
2022-08-21T23:45:38.413Z,100.00
2022-08-21T23:51:11.325Z,100.00
2022-08-21T23:56:55.417Z,100.00
